Time;durP1;ratioP1;P1;durP2;ratioP2;P2;SDS_P1;SDS_P2;PMS_P1;PMS_P2;Temp;Humidity;BMP_temperature;BMP_pressure;BME280_temperature;BME280_humidity;BME280_pressure;Samples;Min_cycle;Max_cycle;Signal;HPM_P1;HPM_P2
2022/06/06 00:00:14;;;;;;;4.43;2.30;;;;;;;16.43;100.00;99024.38;5031424;28;20237;-79
2022/06/06 00:02:42;;;;;;;4.30;2.73;;;;;;;16.47;100.00;99025.75;5026531;28;20206;-80
2022/06/06 00:05:14;;;;;;;3.57;2.50;;;;;;;16.43;100.00;99027.03;5035617;28;20201;-80
2022/06/06 00:07:44;;;;;;;5.57;2.40;;;;;;;16.38;100.00;99022.09;5030763;28;20190;-79
2022/06/06 00:10:12;;;;;;;4.63;2.60;;;;;;;16.44;100.00;99034.91;4992142;28;20201;-80
2022/06/06 00:12:42;;;;;;;7.20;2.70;;;;;;;16.40;100.00;99032.63;5029401;28;20190;-80
2022/06/06 00:15:12;;;;;;;3.97;2.60;;;;;;;16.41;100.00;99029.00;5032276;28;20198;-80
2022/06/06 00:17:41;;;;;;;4.43;2.93;;;;;;;16.58;100.00;99022.94;5031010;28;20436;-80
2022/06/06 00:20:10;;;;;;;9.03;2.90;;;;;;;16.53;100.00;99027.88;5030266;28;20248;-80
2022/06/06 00:22:38;;;;;;;2.73;2.50;;;;;;;16.52;100.00;99024.38;5030432;28;20232;-79
2022/06/06 00:25:07;;;;;;;3.43;2.60;;;;;;;16.59;100.00;99029.97;5025256;28;20202;-80
2022/06/06 00:27:36;;;;;;;3.47;2.63;;;;;;;16.53;100.00;99022.53;5026018;28;20229;-79
2022/06/06 00:30:07;;;;;;;4.83;2.83;;;;;;;16.42;100.00;99020.00;5032607;28;20205;-80
2022/06/06 00:35:21;;;;;;;2.87;2.63;;;;;;;16.51;100.00;99021.84;5029455;28;20206;-80
2022/06/06 00:37:51;;;;;;;4.90;2.90;;;;;;;16.37;100.00;99014.22;5030060;28;20194;-80
2022/06/06 00:40:23;;;;;;;6.90;2.97;;;;;;;16.38;100.00;99007.88;5030305;28;20248;-80
2022/06/06 00:42:51;;;;;;;5.83;3.00;;;;;;;16.36;100.00;99010.69;5035391;28;20205;-81
2022/06/06 00:45:27;;;;;;;5.90;2.90;;;;;;;16.40;100.00;99012.09;5026695;28;20213;-81
2022/06/06 00:48:03;;;;;;;5.27;2.80;;;;;;;16.36;100.00;99013.38;5030429;28;20186;-78
2022/06/06 00:50:38;;;;;;;4.03;2.80;;;;;;;16.42;100.00;99020.00;5027949;28;20205;-79
2022/06/06 00:53:09;;;;;;;6.03;2.80;;;;;;;16.40;100.00;99014.75;5034325;28;20201;-79
2022/06/06 00:55:41;;;;;;;6.07;2.80;;;;;;;16.32;100.00;99006.63;5030438;28;20198;-79
2022/06/06 00:58:13;;;;;;;6.33;3.40;;;;;;;16.22;100.00;99003.09;5028877;28;20221;-79
2022/06/06 01:00:44;;;;;;;5.73;3.30;;;;;;;16.15;100.00;98999.25;5028991;28;20228;-79
2022/06/06 01:03:14;;;;;;;5.93;3.20;;;;;;;16.19;100.00;99001.50;5023395;28;20197;-79
2022/06/06 01:05:45;;;;;;;5.00;3.27;;;;;;;16.24;100.00;99007.31;5032905;28;20242;-79
2022/06/06 01:08:15;;;;;;;7.07;3.43;;;;;;;16.23;100.00;99002.94;5028420;28;20200;-79
2022/06/06 01:10:43;;;;;;;6.83;3.70;;;;;;;16.12;100.00;99003.06;5030024;28;20272;-79
2022/06/06 01:13:15;;;;;;;7.13;3.90;;;;;;;16.15;100.00;99005.44;5028590;28;20586;-79
2022/06/06 01:15:59;;;;;;;3.90;3.20;;;;;;;16.11;100.00;99006.69;5034069;28;20196;-79
2022/06/06 01:18:35;;;;;;;4.87;3.60;;;;;;;16.09;100.00;99006.00;5035848;28;20700;-79
2022/06/06 01:21:45;;;;;;;7.97;3.43;;;;;;;16.00;100.00;99001.47;5029969;28;20209;-79
2022/06/06 01:24:40;;;;;;;3.67;3.17;;;;;;;16.19;100.00;98998.84;5025157;28;20201;-79
2022/06/06 01:27:28;;;;;;;5.70;3.70;;;;;;;16.11;100.00;98993.31;5000392;28;20194;-79
2022/06/06 01:30:03;;;;;;;5.17;3.50;;;;;;;16.08;100.00;99001.63;5027350;28;20194;-79
2022/06/06 01:32:37;;;;;;;6.70;3.90;;;;;;;16.06;100.00;98992.06;5029740;28;20201;-79
2022/06/06 01:35:08;;;;;;;9.30;3.97;;;;;;;16.11;100.00;98987.16;5029495;28;20193;-79
2022/06/06 01:37:42;;;;;;;7.67;3.70;;;;;;;16.12;100.00;98980.84;5028269;28;20206;-79
2022/06/06 01:40:13;;;;;;;5.70;3.83;;;;;;;15.78;100.00;98986.50;5029550;28;20211;-79
2022/06/06 01:42:49;;;;;;;5.53;3.70;;;;;;;15.93;100.00;98986.97;5089523;28;20206;-79
2022/06/06 01:45:25;;;;;;;6.70;3.77;;;;;;;15.74;100.00;98993.09;5090751;28;20199;-79
2022/06/06 01:47:58;;;;;;;7.03;3.67;;;;;;;15.80;100.00;99002.38;5092437;28;20226;-79
2022/06/06 01:50:27;;;;;;;6.03;3.47;;;;;;;15.95;100.00;99001.03;5094288;28;20198;-79
2022/06/06 01:52:57;;;;;;;6.57;4.30;;;;;;;15.99;100.00;98997.94;5094226;28;20255;-79
2022/06/06 01:55:27;;;;;;;5.27;3.83;;;;;;;16.08;100.00;98998.97;5089448;28;20200;-79
2022/06/06 01:58:00;;;;;;;6.57;4.10;;;;;;;16.21;100.00;98994.22;5092451;28;20188;-79
2022/06/06 02:00:33;;;;;;;8.07;4.60;;;;;;;16.16;100.00;98996.44;5070772;28;20208;-79
2022/06/06 02:03:01;;;;;;;5.00;3.83;;;;;;;16.25;100.00;98990.28;5029023;28;20724;-79
2022/06/06 02:05:30;;;;;;;8.97;4.47;;;;;;;16.14;100.00;98993.06;5032361;28;20198;-79
2022/06/06 02:07:58;;;;;;;6.13;4.60;;;;;;;15.97;100.00;99002.59;5035024;28;20194;-79
2022/06/06 02:10:27;;;;;;;5.53;3.90;;;;;;;16.18;100.00;98990.97;5029841;28;20193;-79
2022/06/06 02:12:56;;;;;;;6.63;4.13;;;;;;;16.20;100.00;99002.34;5028341;28;20198;-79
2022/06/06 02:15:26;;;;;;;5.20;4.17;;;;;;;16.06;100.00;98998.25;5026160;28;20213;-79
2022/06/06 02:17:57;;;;;;;6.17;4.10;;;;;;;15.98;100.00;99003.44;5032259;28;20194;-79
2022/06/06 02:20:28;;;;;;;8.67;4.70;;;;;;;16.09;100.00;98997.97;5030329;28;20189;-79
2022/06/06 02:22:56;;;;;;;8.33;4.97;;;;;;;16.24;100.00;99006.47;5028538;28;20239;-79
2022/06/06 02:25:26;;;;;;;6.70;4.30;;;;;;;16.21;100.00;98996.91;5032502;28;20656;-79
2022/06/06 02:27:54;;;;;;;6.00;4.30;;;;;;;16.37;100.00;99000.84;5028903;28;20209;-79
2022/06/06 02:30:27;;;;;;;7.57;4.13;;;;;;;16.33;100.00;99002.97;5036775;28;20266;-79
2022/06/06 02:32:57;;;;;;;5.97;4.33;;;;;;;16.29;100.00;98999.69;5032870;28;20194;-79
2022/06/06 02:35:28;;;;;;;6.37;4.40;;;;;;;16.37;100.00;99001.69;5030010;28;20223;-79
2022/06/06 02:37:57;;;;;;;7.13;4.53;;;;;;;16.29;100.00;98999.69;5032104;28;20249;-79
2022/06/06 02:40:28;;;;;;;7.63;4.63;;;;;;;16.24;100.00;98998.44;5027444;28;20198;-79
2022/06/06 02:42:56;;;;;;;7.93;4.77;;;;;;;16.35;100.00;99006.34;5030745;28;20300;-79
2022/06/06 02:45:25;;;;;;;6.23;4.23;;;;;;;16.15;100.00;99004.59;5032177;28;20205;-79
2022/06/06 02:47:58;;;;;;;6.70;4.73;;;;;;;16.23;100.00;99013.63;5038589;27;20263;-79
2022/06/06 02:50:29;;;;;;;6.40;4.53;;;;;;;15.98;100.00;99008.78;5030850;28;20254;-79
2022/06/06 02:52:58;;;;;;;6.03;4.83;;;;;;;16.24;100.00;99009.13;5030800;28;20205;-80
2022/06/06 02:55:27;;;;;;;8.63;5.20;;;;;;;16.10;100.00;99005.00;5030972;28;20202;-79
2022/06/06 02:57:55;;;;;;;7.57;5.07;;;;;;;16.10;100.00;99005.00;5023265;28;20209;-79
2022/06/06 03:00:26;;;;;;;9.13;5.23;;;;;;;15.90;100.00;99003.25;5027761;28;20194;-79
2022/06/06 03:02:55;;;;;;;8.57;5.50;;;;;;;15.82;100.00;99008.44;5032482;28;20256;-79
2022/06/06 03:05:35;;;;;;;9.43;6.27;;;;;;;16.06;100.00;99014.28;5034575;28;20205;-79
2022/06/06 03:08:18;;;;;;;9.57;5.63;;;;;;;16.06;100.00;99008.09;5031823;28;20185;-79
2022/06/06 03:10:58;;;;;;;8.60;6.77;;;;;;;15.91;100.00;99004.94;5029371;28;20194;-79
2022/06/06 03:13:36;;;;;;;8.80;6.60;;;;;;;15.94;100.00;99002.88;5030724;28;20645;-79
2022/06/06 03:22:30;;;;;;;8.27;6.50;;;;;;;16.03;100.00;99001.22;5031143;28;20222;-79
2022/06/06 03:25:05;;;;;;;12.53;7.07;;;;;;;15.79;100.00;98998.88;5031349;28;20317;-79
2022/06/06 03:27:47;;;;;;;10.50;6.73;;;;;;;15.92;100.00;99010.19;5030163;28;20730;-79
2022/06/06 03:30:23;;;;;;;9.53;6.83;;;;;;;15.72;100.00;98997.72;5034612;28;20241;-79
2022/06/06 03:33:06;;;;;;;11.60;7.60;;;;;;;15.57;100.00;99010.56;5030108;28;20201;-79
2022/06/06 03:35:41;;;;;;;12.30;7.77;;;;;;;15.57;100.00;99012.38;5025016;28;20212;-79
2022/06/06 03:38:16;;;;;;;14.83;8.37;;;;;;;15.58;100.00;99014.06;5030826;28;20220;-79
2022/06/06 03:40:59;;;;;;;13.60;7.70;;;;;;;15.71;100.00;99017.38;5030971;28;20208;-79
2022/06/06 03:43:34;;;;;;;13.33;8.00;;;;;;;15.63;100.00;99019.88;5024903;28;20228;-79
2022/06/06 03:46:14;;;;;;;11.30;7.43;;;;;;;15.57;100.00;99021.25;5034385;28;20275;-79
2022/06/06 03:48:49;;;;;;;10.80;7.53;;;;;;;15.69;100.00;99033.53;5030979;28;20313;-79
2022/06/06 03:51:28;;;;;;;10.93;8.10;;;;;;;15.43;100.00;99033.09;5031058;28;20202;-79
2022/06/06 03:54:11;;;;;;;11.47;7.53;;;;;;;15.69;100.00;99030.88;5030483;28;20293;-79
2022/06/06 03:56:51;;;;;;;10.60;7.80;;;;;;;15.60;100.00;99030.78;5025856;28;20196;-79
2022/06/06 03:59:21;;;;;;;12.27;7.80;;;;;;;15.54;100.00;99040.19;5031996;28;20194;-79
2022/06/06 04:01:52;;;;;;;11.53;7.47;;;;;;;15.25;100.00;99042.69;5030402;28;20240;-79
2022/06/06 04:04:21;;;;;;;12.50;6.53;;;;;;;15.35;100.00;99040.09;5030999;28;20198;-79
2022/06/06 04:06:53;;;;;;;11.87;6.83;;;;;;;15.58;100.00;99038.09;5028458;28;20200;-79
2022/06/06 04:09:22;;;;;;;11.00;6.63;;;;;;;15.34;100.00;99047.22;5028599;28;20277;-79
2022/06/06 04:12:02;;;;;;;8.10;6.83;;;;;;;15.22;100.00;99069.63;5026365;28;20292;-79
2022/06/06 04:14:44;;;;;;;10.50;6.90;;;;;;;15.47;100.00;99057.72;5030654;28;20276;-79
2022/06/06 04:17:27;;;;;;;8.37;6.67;;;;;;;15.40;100.00;99065.41;5030832;28;20196;-79
2022/06/06 04:20:03;;;;;;;10.93;6.60;;;;;;;15.35;100.00;99072.13;5030071;28;20212;-79
2022/06/06 04:22:44;;;;;;;8.27;6.53;;;;;;;15.39;100.00;99071.72;5027941;28;20308;-79
2022/06/06 04:25:32;;;;;;;12.97;6.33;;;;;;;15.45;100.00;99070.34;5029319;28;20271;-79
2022/06/06 04:28:06;;;;;;;9.47;6.50;;;;;;;15.41;100.00;99068.91;5029133;28;20197;-79
2022/06/06 04:30:42;;;;;;;11.97;6.53;;;;;;;15.18;100.00;99061.03;5030037;28;20218;-78
2022/06/06 04:33:19;;;;;;;9.90;6.40;;;;;;;15.31;100.00;99074.19;5026788;28;20202;-79
2022/06/06 04:36:04;;;;;;;8.87;6.50;;;;;;;15.44;100.00;99072.19;5029997;28;20202;-79
2022/06/06 04:38:46;;;;;;;10.60;6.40;;;;;;;15.60;100.00;99079.72;5030315;28;20189;-79
2022/06/06 04:41:21;;;;;;;9.70;6.60;;;;;;;15.73;100.00;99080.38;5032034;28;20205;-79
2022/06/06 04:44:00;;;;;;;8.30;6.50;;;;;;;15.78;100.00;99087.13;5029234;28;20221;-79
2022/06/06 04:46:37;;;;;;;9.90;6.43;;;;;;;15.82;100.00;99096.56;5032904;28;20280;-79
2022/06/06 04:49:06;;;;;;;9.63;6.57;;;;;;;15.78;100.00;99095.16;5030133;28;20197;-79
2022/06/06 04:51:36;;;;;;;10.40;6.40;;;;;;;15.95;100.00;99097.22;5029155;28;20194;-79
2022/06/06 04:54:06;;;;;;;8.90;6.10;;;;;;;16.07;100.00;99089.94;5029780;28;20194;-79
2022/06/06 04:56:36;;;;;;;8.30;5.80;;;;;;;15.91;100.00;99087.75;5032946;28;20212;-79
2022/06/06 04:59:09;;;;;;;8.87;6.00;;;;;;;15.93;100.00;99091.16;5030106;28;20226;-80
2022/06/06 05:01:39;;;;;;;11.10;6.73;;;;;;;16.00;100.00;99084.28;5030871;28;20201;-79
2022/06/06 05:04:09;;;;;;;9.00;6.33;;;;;;;15.94;100.00;99083.00;5029860;28;20222;-79
2022/06/06 05:07:06;;;;;;;8.50;6.30;;;;;;;15.95;100.00;99082.03;5033067;28;20560;-80
2022/06/06 05:09:51;;;;;;;11.57;6.40;;;;;;;16.16;100.00;99089.97;5028627;28;20202;-79
2022/06/06 05:12:38;;;;;;;8.70;6.30;;;;;;;16.15;100.00;99093.63;5025990;28;20193;-79
2022/06/06 05:15:20;;;;;;;10.53;6.50;;;;;;;16.17;100.00;99096.16;5028773;28;20220;-79
2022/06/06 05:18:02;;;;;;;9.43;6.77;;;;;;;16.23;100.00;99082.28;5030408;28;20189;-80
2022/06/06 05:20:50;;;;;;;8.83;6.43;;;;;;;16.43;100.00;99086.69;5032524;28;20275;-80
2022/06/06 05:23:52;;;;;;;10.27;6.73;;;;;;;16.28;100.00;99082.69;5031189;28;20377;-79
2022/06/06 05:26:45;;;;;;;8.53;6.57;;;;;;;16.43;100.00;99089.38;5031794;28;20197;-80
2022/06/06 05:29:40;;;;;;;10.63;6.67;;;;;;;16.39;100.00;99095.09;5033096;28;20256;-80
2022/06/06 05:32:35;;;;;;;10.50;6.67;;;;;;;16.49;100.00;99094.16;5033005;28;20308;-79
2022/06/06 05:35:15;;;;;;;10.93;7.23;;;;;;;16.66;100.00;99086.44;5033105;28;20675;-79
2022/06/06 05:37:53;;;;;;;8.23;6.23;;;;;;;16.66;100.00;99086.44;5030228;28;20216;-79
2022/06/06 05:40:35;;;;;;;7.97;6.27;;;;;;;16.70;100.00;99085.25;4997498;28;20194;-80
2022/06/06 05:43:27;;;;;;;11.00;6.40;;;;;;;16.60;100.00;99079.84;5031423;28;20222;-79
2022/06/06 05:46:12;;;;;;;8.43;6.00;;;;;;;16.65;100.00;99085.59;5031662;28;20226;-79
2022/06/06 05:49:05;;;;;;;7.57;6.13;;;;;;;16.72;100.00;99080.59;5032905;28;20588;-79
2022/06/06 05:51:45;;;;;;;7.83;5.90;;;;;;;16.94;100.00;99091.00;5033122;28;20197;-80
2022/06/06 05:54:31;;;;;;;7.67;6.17;;;;;;;17.03;100.00;99081.31;5031688;28;20202;-79
2022/06/06 05:57:16;;;;;;;8.53;6.20;;;;;;;16.93;100.00;99092.00;5031254;28;20204;-79
2022/06/06 06:00:10;;;;;;;8.67;5.97;;;;;;;16.99;100.00;99090.59;5030283;28;20205;-79
2022/06/06 06:03:26;;;;;;;9.53;6.27;;;;;;;16.88;100.00;99086.22;5006968;28;20221;-79
2022/06/06 06:06:03;;;;;;;7.20;5.40;;;;;;;17.17;100.00;99075.50;4988805;28;20195;-79
2022/06/06 06:08:46;;;;;;;7.07;5.60;;;;;;;17.30;100.00;99084.13;4991177;28;20654;-79
2022/06/06 06:11:29;;;;;;;6.73;6.03;;;;;;;16.98;100.00;99088.91;5015455;28;20284;-80
2022/06/06 06:14:12;;;;;;;7.13;5.63;;;;;;;16.99;100.00;99087.94;5031571;28;20206;-79
2022/06/06 06:16:45;;;;;;;7.80;5.10;;;;;;;17.28;100.00;99090.59;5032792;28;20186;-79
2022/06/06 06:19:19;;;;;;;7.63;5.77;;;;;;;17.06;100.00;99094.41;5032550;28;20235;-79
2022/06/06 06:21:51;;;;;;;7.93;6.03;;;;;;;17.30;100.00;99089.47;5034381;28;20656;-79
2022/06/06 06:24:26;;;;;;;8.00;5.70;;;;;;;17.46;100.00;99091.53;5032900;28;20217;-79
2022/06/06 06:26:57;;;;;;;9.20;5.53;;;;;;;17.62;100.00;99099.84;5036024;27;20200;-80
2022/06/06 06:29:25;;;;;;;7.17;5.87;;;;;;;17.56;100.00;99095.03;5030771;28;20221;-79
2022/06/06 06:32:12;;;;;;;10.60;6.53;;;;;;;17.32;100.00;99100.03;5032977;28;20256;-80
2022/06/06 06:34:54;;;;;;;7.30;6.33;;;;;;;17.46;100.00;99108.44;5027622;28;20206;-80
2022/06/06 06:37:38;;;;;;;6.40;5.63;;;;;;;17.42;100.00;99101.69;5033662;28;20202;-80
2022/06/06 06:40:19;;;;;;;8.13;5.80;;;;;;;17.48;100.00;99111.00;5034641;28;20197;-80
2022/06/06 06:43:02;;;;;;;7.67;5.40;;;;;;;17.41;100.00;99108.06;5030993;28;20657;-81
2022/06/06 06:45:35;;;;;;;6.40;5.50;;;;;;;17.28;100.00;99118.22;5032227;28;20372;-80
2022/06/06 06:48:12;;;;;;;8.53;5.87;;;;;;;17.11;100.00;99122.44;5032100;28;20208;-80
2022/06/06 06:50:52;;;;;;;8.93;5.53;;;;;;;17.46;100.00;99112.97;5030570;28;20201;-81
2022/06/06 06:53:32;;;;;;;7.03;5.30;;;;;;;17.41;100.00;99112.56;5032132;28;20204;-80
2022/06/06 06:56:10;;;;;;;7.63;5.70;;;;;;;17.61;100.00;99103.50;5030784;28;20197;-81
2022/06/06 06:58:51;;;;;;;6.40;5.30;;;;;;;17.74;100.00;99098.69;5031724;28;20654;-81
2022/06/06 07:01:27;;;;;;;7.37;5.07;;;;;;;18.04;100.00;99096.75;5032301;28;20197;-80
2022/06/06 07:10:15;;;;;;;6.23;5.50;;;;;;;18.50;100.00;99082.44;5031702;28;20197;-81
2022/06/06 07:12:59;;;;;;;6.57;5.43;;;;;;;18.43;100.00;99081.38;5031079;28;20190;-81
2022/06/06 07:15:38;;;;;;;7.57;4.97;;;;;;;17.98;100.00;99078.63;5031299;28;20201;-80
2022/06/06 07:18:09;;;;;;;8.17;6.00;;;;;;;18.12;100.00;99086.16;5033240;28;20228;-80
2022/06/06 07:20:40;;;;;;;7.00;5.23;;;;;;;18.19;100.00;99091.78;5031496;28;20194;-80
2022/06/06 07:23:11;;;;;;;5.70;5.10;;;;;;;18.28;100.00;99082.84;5026459;28;20206;-81
2022/06/06 07:25:43;;;;;;;6.83;5.27;;;;;;;18.29;100.00;99088.06;5031118;28;20206;-81
2022/06/06 07:28:15;;;;;;;9.37;5.70;;;;;;;18.18;100.00;99085.56;5034085;28;20209;-81
2022/06/06 07:30:50;;;;;;;6.97;5.50;;;;;;;17.99;100.00;99089.19;5031072;28;20309;-80
2022/06/06 07:33:38;;;;;;;7.40;4.80;;;;;;;18.05;100.00;99085.09;5031154;28;20201;-80
2022/06/06 07:36:17;;;;;;;7.70;5.67;;;;;;;17.99;100.00;99089.19;5031287;28;20197;-80
2022/06/06 07:39:00;;;;;;;7.13;5.80;;;;;;;17.81;100.00;99098.97;5031209;28;20194;-80
2022/06/06 07:41:45;;;;;;;5.27;4.77;;;;;;;17.88;100.00;99096.56;5027366;28;20198;-80
2022/06/06 07:44:30;;;;;;;6.20;4.70;;;;;;;18.24;100.00;99098.41;5030813;28;20224;-80
2022/06/06 07:47:05;;;;;;;5.43;4.07;;;;;;;18.29;100.00;99089.91;5030078;28;20194;-80
2022/06/06 07:49:52;;;;;;;6.70;4.13;;;;;;;18.04;100.00;99088.72;5035282;28;20201;-79
2022/06/06 07:52:30;;;;;;;5.60;4.27;;;;;;;18.13;100.00;99087.84;5030763;28;20276;-79
2022/06/06 07:55:07;;;;;;;5.57;4.10;;;;;;;18.16;100.00;99089.41;5030830;28;20203;-79
2022/06/06 07:57:44;;;;;;;5.27;4.17;;;;;;;18.17;100.00;99080.38;5027379;28;20202;-79
2022/06/06 08:00:18;;;;;;;4.57;3.43;;;;;;;18.40;100.00;99080.81;5028798;28;20306;-79
2022/06/06 08:02:58;;;;;;;5.03;3.93;;;;;;;18.29;100.00;99073.81;5028666;28;20253;-79
2022/06/06 08:05:55;;;;;;;6.90;4.00;;;;;;;18.60;100.00;99075.16;5029567;28;20217;-79
2022/06/06 08:08:45;;;;;;;4.30;3.77;;;;;;;18.75;100.00;99063.97;5028485;28;20198;-79
2022/06/06 08:11:20;;;;;;;4.77;3.80;;;;;;;19.18;100.00;99060.47;5030726;28;20205;-79
2022/06/06 08:13:57;;;;;;;5.37;3.70;;;;;;;19.27;100.00;99064.06;5028120;28;20202;-80
2022/06/06 08:16:32;;;;;;;6.93;3.43;;;;;;;19.14;100.00;99056.44;5028276;28;20198;-79
2022/06/06 08:19:19;;;;;;;6.17;3.37;;;;;;;19.03;100.00;99065.56;5027435;28;20205;-80
2022/06/06 08:21:50;;;;;;;7.00;3.60;;;;;;;19.51;100.00;99058.06;5028039;28;20632;-79
2022/06/06 08:24:23;;;;;;;4.20;3.13;;;;;;;19.47;100.00;99062.03;5030359;28;20240;-80
2022/06/06 08:27:14;;;;;;;3.97;3.00;;;;;;;19.17;100.00;99056.97;5029458;27;20194;-79
2022/06/06 08:29:45;;;;;;;3.80;3.40;;;;;;;18.87;100.00;99068.94;5031497;28;20667;-80
2022/06/06 08:32:15;;;;;;;3.60;3.10;;;;;;;18.73;100.00;99058.75;5034387;28;20732;-79
2022/06/06 08:34:44;;;;;;;3.80;2.90;;;;;;;18.91;100.00;99049.84;5028158;28;20198;-79
2022/06/06 08:37:51;;;;;;;4.37;3.20;;;;;;;18.72;100.00;99054.38;5024081;28;20212;-79
2022/06/06 08:40:47;;;;;;;4.93;3.27;;;;;;;18.86;100.00;99051.16;5010992;28;20233;-80
2022/06/06 08:43:19;;;;;;;3.77;3.20;;;;;;;18.83;100.00;99048.78;5025151;28;20205;-79
2022/06/06 08:46:00;;;;;;;4.77;3.00;;;;;;;18.85;100.00;99052.16;5030039;28;20214;-79
2022/06/06 08:49:01;;;;;;;3.40;2.90;;;;;;;19.06;100.00;99051.84;5029958;28;20206;-79
2022/06/06 08:51:48;;;;;;;3.43;2.70;;;;;;;18.70;100.00;99048.31;5030123;28;20280;-80
2022/06/06 08:54:46;;;;;;;3.50;3.00;;;;;;;18.67;100.00;99042.41;5029989;28;20193;-79
2022/06/06 08:57:41;;;;;;;3.00;2.70;;;;;;;18.93;100.00;99031.75;5026019;28;20240;-80
2022/06/06 09:00:20;;;;;;;4.40;3.00;;;;;;;18.84;100.00;99039.72;5029970;28;20209;-80
2022/06/06 09:03:25;;;;;;;3.87;3.00;;;;;;;18.83;100.00;99031.84;5027267;28;20204;-79
2022/06/06 09:06:31;;;;;;;3.43;3.00;;;;;;;19.10;100.00;99026.34;5025196;28;20214;-80
2022/06/06 09:09:32;;;;;;;4.00;2.70;;;;;;;19.14;100.00;99024.22;5029847;28;20194;-80
2022/06/06 09:12:57;;;;;;;5.10;2.80;;;;;;;19.04;100.00;99037.72;5031837;28;20204;-80
2022/06/06 09:15:54;;;;;;;3.53;3.00;;;;;;;18.85;100.00;99043.25;5036090;28;20202;-79
2022/06/06 09:18:56;;;;;;;3.33;2.70;;;;;;;18.94;100.00;99046.88;5029067;28;20202;-80
2022/06/06 09:22:02;;;;;;;2.83;2.50;;;;;;;19.23;100.00;99044.75;5029184;28;20197;-80
2022/06/06 09:24:54;;;;;;;4.20;2.73;;;;;;;19.24;100.00;99057.19;5025196;28;20248;-80
2022/06/06 09:27:55;;;;;;;6.20;3.67;;;;;;;19.51;100.00;99044.63;5015476;28;20209;-80
2022/06/06 09:30:49;;;;;;;5.17;3.40;;;;;;;19.45;100.00;99044.25;5025436;28;20240;-79
2022/06/06 09:34:03;;;;;;;3.87;3.40;;;;;;;19.41;100.00;99045.56;5035330;28;20247;-80
2022/06/06 09:36:52;;;;;;;4.23;3.17;;;;;;;19.24;100.00;99037.53;5029665;28;20234;-80
2022/06/06 09:39:35;;;;;;;5.00;3.40;;;;;;;19.85;100.00;99039.31;5028863;28;20198;-80
2022/06/06 09:42:20;;;;;;;3.90;3.10;;;;;;;19.68;100.00;99033.00;5026814;28;20208;-80
2022/06/06 09:45:21;;;;;;;3.93;3.13;;;;;;;20.15;100.00;99032.56;5027354;28;20248;-80
2022/06/06 09:48:14;;;;;;;2.93;2.60;;;;;;;20.07;100.00;99030.66;5025291;28;20202;-80
2022/06/06 09:51:18;;;;;;;3.17;2.87;;;;;;;20.13;100.00;99021.97;5029561;28;20216;-79
2022/06/06 10:00:53;;;;;;;6.17;2.50;;;;;;;20.17;100.00;99017.09;5036220;28;20198;-80
2022/06/06 10:03:57;;;;;;;2.83;2.40;;;;;;;20.08;100.00;99029.69;5029238;28;20194;-80
2022/06/06 10:07:05;;;;;;;3.83;2.30;;;;;;;19.89;100.00;99025.41;5014489;28;20225;-80
2022/06/06 10:10:07;;;;;;;2.73;2.50;;;;;;;19.90;100.00;99019.00;5032058;28;20205;-80
2022/06/06 10:12:51;;;;;;;4.17;2.60;;;;;;;20.30;100.00;99012.09;5031074;28;20193;-80
2022/06/06 10:15:43;;;;;;;2.97;2.67;;;;;;;20.65;100.00;99026.31;5030379;28;20280;-81
2022/06/06 10:18:38;;;;;;;3.53;2.67;;;;;;;20.60;100.00;99017.91;5036755;28;20198;-79
2022/06/06 10:21:31;;;;;;;2.73;2.30;;;;;;;20.73;100.00;99020.97;5032884;28;20198;-80
2022/06/06 10:24:14;;;;;;;3.80;2.37;;;;;;;20.76;100.00;99017.97;5020527;28;20198;-80
2022/06/06 10:26:59;;;;;;;3.47;2.47;;;;;;;20.30;100.00;99023.69;5033703;28;20225;-80
2022/06/06 10:33:06;;;;;;;5.13;2.43;;;;;;;21.64;100.00;99016.25;5032102;28;20205;-80
2022/06/06 10:35:50;;;;;;;3.07;2.30;;;;;;;21.16;100.00;99011.75;5032712;28;20224;-80
2022/06/06 10:38:51;;;;;;;3.83;2.20;;;;;;;21.80;100.00;99006.41;5032728;28;20206;-80
2022/06/06 10:41:42;;;;;;;3.73;1.93;;;;;;;21.44;100.00;99004.16;5030853;28;20194;-81
2022/06/06 10:44:36;;;;;;;1.57;1.47;;;;;;;21.29;100.00;99009.38;5024882;28;20212;-80
2022/06/06 10:47:19;;;;;;;2.43;1.50;;;;;;;21.87;100.00;99004.72;5038232;27;20226;-81
2022/06/06 10:49:55;;;;;;;2.70;1.50;;;;;;;21.58;100.00;99006.13;5028077;28;20201;-80
2022/06/06 10:53:00;;;;;;;2.10;1.50;;;;;;;21.63;100.00;98998.38;5031785;28;20272;-81
2022/06/06 10:55:54;;;;;;;1.73;1.40;;;;;;;22.32;100.00;99005.91;5031733;28;20190;-80
2022/06/06 10:58:54;;;;;;;2.05;1.40;;;;;;;22.50;97.42;98995.66;5031372;28;20201;-80
2022/06/06 11:01:55;;;;;;;2.90;1.48;;;;;;;22.05;96.89;98989.13;5027964;28;20194;-81
2022/06/06 11:04:56;;;;;;;2.13;1.40;;;;;;;21.49;100.00;98999.09;5031702;28;20194;-80
2022/06/06 11:07:54;;;;;;;1.93;1.50;;;;;;;22.14;100.00;98982.72;5031632;28;20200;-80
2022/06/06 11:10:46;;;;;;;2.95;1.50;;;;;;;21.86;100.00;98990.38;5037953;27;20210;-80
2022/06/06 11:13:29;;;;;;;2.10;1.27;;;;;;;22.25;100.00;98982.31;5028852;28;20288;-80
2022/06/06 11:16:19;;;;;;;2.13;1.50;;;;;;;21.59;97.95;98980.03;5031180;28;20197;-80
2022/06/06 11:19:36;;;;;;;2.72;1.35;;;;;;;22.12;97.01;98971.25;5027896;28;20289;-80
2022/06/06 11:22:36;;;;;;;3.60;1.67;;;;;;;21.19;100.00;98972.84;5037589;27;20201;-79
2022/06/06 11:25:11;;;;;;;4.10;1.40;;;;;;;21.66;100.00;98962.97;5028903;28;20216;-80
2022/06/06 11:28:14;;;;;;;3.08;1.38;;;;;;;21.94;100.00;98958.00;5028641;28;20230;-81
2022/06/06 11:31:25;;;;;;;5.38;1.30;;;;;;;21.95;97.46;98966.91;5030865;28;20262;-80
2022/06/06 11:34:39;;;;;;;1.27;1.02;;;;;;;21.43;97.13;98959.38;5031150;28;20491;-80
2022/06/06 11:37:37;;;;;;;2.33;1.47;;;;;;;21.34;99.77;98946.91;5031194;28;20194;-80
2022/06/06 11:40:52;;;;;;;2.17;1.20;;;;;;;21.46;100.00;98950.09;5031143;28;20276;-80
2022/06/06 11:44:01;;;;;;;2.03;1.20;;;;;;;21.84;97.59;98951.97;5026665;28;20202;-80
2022/06/06 11:46:54;;;;;;;3.20;1.50;;;;;;;21.38;98.81;98954.47;5030930;28;20213;-81
2022/06/06 11:50:07;;;;;;;3.33;1.30;;;;;;;21.81;99.16;98944.25;5015164;28;20207;-80
2022/06/06 11:53:08;;;;;;;2.43;1.37;;;;;;;21.73;96.72;98935.34;5028676;28;20198;-80
2022/06/06 11:55:50;;;;;;;2.30;1.30;;;;;;;22.09;100.00;98933.81;5037310;27;20201;-79
2022/06/06 11:58:49;;;;;;;1.70;1.10;;;;;;;21.74;100.00;98934.31;5029754;28;20269;-80
2022/06/06 12:01:45;;;;;;;2.80;1.30;;;;;;;21.63;97.70;98938.25;4989129;28;20198;-80
2022/06/06 12:04:49;;;;;;;1.70;1.50;;;;;;;21.97;97.69;98930.66;5008857;28;20216;-80
2022/06/06 12:07:54;;;;;;;2.58;1.60;;;;;;;22.04;99.69;98930.81;5025635;28;20221;-80
2022/06/06 12:10:24;;;;;;;1.50;1.10;;;;;;;22.53;91.29;98944.84;5030335;28;20273;-80
2022/06/06 12:13:22;;;;;;;2.63;1.27;;;;;;;22.68;91.79;98944.94;5033300;28;20198;-80
2022/06/06 12:16:15;;;;;;;2.30;1.33;;;;;;;22.50;87.29;98941.69;5030052;28;20297;-80
2022/06/06 12:19:10;;;;;;;1.30;1.00;;;;;;;21.87;80.98;98945.38;5030767;28;20198;-80
2022/06/06 12:22:28;;;;;;;2.63;1.00;;;;;;;22.02;84.59;98940.09;5030576;28;20660;-80
2022/06/06 12:25:27;;;;;;;1.70;1.10;;;;;;;21.54;90.22;98933.91;5030675;28;20357;-80
2022/06/06 12:28:25;;;;;;;2.80;1.27;;;;;;;21.76;94.51;98932.28;5027992;28;20194;-80
2022/06/06 12:31:17;;;;;;;1.53;1.00;;;;;;;22.73;86.80;98934.41;5023608;28;20723;-80
2022/06/06 12:33:52;;;;;;;1.17;1.08;;;;;;;22.34;88.34;98920.19;5035564;28;20296;-81
2022/06/06 12:36:28;;;;;;;2.60;1.10;;;;;;;22.56;86.44;98924.75;5036821;27;20197;-80
2022/06/06 12:39:03;;;;;;;1.83;1.03;;;;;;;22.91;85.07;98919.78;5027667;28;20225;-80
2022/06/06 12:41:48;;;;;;;1.20;1.10;;;;;;;22.76;86.52;98944.00;5027871;28;20205;-80
2022/06/06 12:44:40;;;;;;;0.98;0.90;;;;;;;23.10;83.21;98908.44;5027142;28;20253;-81
2022/06/06 12:47:25;;;;;;;1.63;1.20;;;;;;;23.31;81.58;98919.34;5029977;28;20309;-80
2022/06/06 12:50:27;;;;;;;1.70;1.20;;;;;;;23.94;75.27;98907.13;5033229;28;20227;-79
2022/06/06 12:53:29;;;;;;;3.08;1.20;;;;;;;23.23;73.61;98918.59;5029953;28;20199;-80
2022/06/06 12:59:14;;;;;;;3.83;1.02;;;;;;;23.63;71.10;98910.06;5029154;28;20658;-80
2022/06/06 13:01:50;;;;;;;3.13;1.20;;;;;;;23.45;71.82;98906.88;5032043;28;20229;-79